sensor_id;sensor_type;location;lat;lon;timestamp;pressure;altitude;pressure_sealevel;temperature;humidity
45621;BME280;31345;51.522;10.702;2023-03-14T00:02:09;96807.50;;;7.73;100.00
45621;BME280;31345;51.522;10.702;2023-03-14T00:04:41;96787.25;;;7.76;100.00
45621;BME280;31345;51.522;10.702;2023-03-14T00:07:10;96774.66;;;7.72;100.00
45621;BME280;31345;51.522;10.702;2023-03-14T00:09:44;96776.75;;;7.58;100.00
45621;BME280;31345;51.522;10.702;2023-03-14T00:12:12;96777.97;;;7.34;100.00
45621;BME280;31345;51.522;10.702;2023-03-14T00:14:40;96783.97;;;7.35;100.00
45621;BME280;31345;51.522;10.702;2023-03-14T00:17:13;96797.41;;;7.30;100.00
45621;BME280;31345;51.522;10.702;2023-03-14T00:19:41;96798.25;;;7.11;100.00
45621;BME280;31345;51.522;10.702;2023-03-14T00:22:08;96795.78;;;7.19;100.00
45621;BME280;31345;51.522;10.702;2023-03-14T00:24:36;96799.59;;;7.05;100.00
45621;BME280;31345;51.522;10.702;2023-03-14T00:27:04;96796.72;;;7.28;100.00
45621;BME280;31345;51.522;10.702;2023-03-14T00:29:37;96813.16;;;7.28;100.00
45621;BME280;31345;51.522;10.702;2023-03-14T00:32:05;96822.16;;;7.44;100.00
45621;BME280;31345;51.522;10.702;2023-03-14T00:34:37;96831.63;;;7.65;100.00
45621;BME280;31345;51.522;10.702;2023-03-14T00:37:05;96837.34;;;7.78;100.00
45621;BME280;31345;51.522;10.702;2023-03-14T00:39:37;96845.03;;;8.28;100.00
45621;BME280;31345;51.522;10.702;2023-03-14T00:42:11;96849.78;;;8.42;100.00
45621;BME280;31345;51.522;10.702;2023-03-14T00:44:38;96856.63;;;8.43;100.00
45621;BME280;31345;51.522;10.702;2023-03-14T00:47:07;96859.47;;;8.50;100.00
45621;BME280;31345;51.522;10.702;2023-03-14T00:49:34;96865.47;;;8.60;100.00
45621;BME280;31345;51.522;10.702;2023-03-14T00:52:02;96886.75;;;8.84;100.00
45621;BME280;31345;51.522;10.702;2023-03-14T00:54:34;96898.66;;;8.86;100.00
45621;BME280;31345;51.522;10.702;2023-03-14T00:57:02;96906.06;;;8.91;100.00
45621;BME280;31345;51.522;10.702;2023-03-14T00:59:36;96888.72;;;9.00;100.00
45621;BME280;31345;51.522;10.702;2023-03-14T01:02:08;96909.75;;;9.17;100.00
45621;BME280;31345;51.522;10.702;2023-03-14T01:04:36;96912.75;;;9.22;100.00
45621;BME280;31345;51.522;10.702;2023-03-14T01:07:05;96917.66;;;9.25;100.00
45621;BME280;31345;51.522;10.702;2023-03-14T01:09:33;96916.03;;;9.24;100.00
45621;BME280;31345;51.522;10.702;2023-03-14T01:12:07;96908.88;;;9.26;100.00
45621;BME280;31345;51.522;10.702;2023-03-14T01:14:36;96902.72;;;9.27;100.00
45621;BME280;31345;51.522;10.702;2023-03-14T01:17:04;96901.88;;;9.27;100.00
45621;BME280;31345;51.522;10.702;2023-03-14T01:19:36;96898.09;;;9.39;100.00
45621;BME280;31345;51.522;10.702;2023-03-14T01:22:04;96891.25;;;9.38;100.00
45621;BME280;31345;51.522;10.702;2023-03-14T01:24:31;96884.06;;;9.40;100.00
45621;BME280;31345;51.522;10.702;2023-03-14T01:27:04;96885.56;;;9.43;100.00
45621;BME280;31345;51.522;10.702;2023-03-14T01:29:38;96891.47;;;9.45;100.00
45621;BME280;31345;51.522;10.702;2023-03-14T01:32:05;96884.28;;;9.47;100.00
45621;BME280;31345;51.522;10.702;2023-03-14T01:34:38;96872.31;;;9.36;100.00
45621;BME280;31345;51.522;10.702;2023-03-14T01:37:11;96869.41;;;9.39;100.00
45621;BME280;31345;51.522;10.702;2023-03-14T01:39:46;96862.00;;;9.34;100.00
45621;BME280;31345;51.522;10.702;2023-03-14T01:42:18;96849.81;;;9.35;100.00
45621;BME280;31345;51.522;10.702;2023-03-14T01:44:52;96839.66;;;9.32;100.00
45621;BME280;31345;51.522;10.702;2023-03-14T01:47:26;96833.78;;;9.48;100.00
45621;BME280;31345;51.522;10.702;2023-03-14T01:50:01;96829.44;;;9.38;100.00
45621;BME280;31345;51.522;10.702;2023-03-14T01:52:32;96818.50;;;9.35;100.00
45621;BME280;31345;51.522;10.702;2023-03-14T01:55:05;96813.81;;;9.38;100.00
45621;BME280;31345;51.522;10.702;2023-03-14T01:57:36;96795.88;;;9.35;100.00
45621;BME280;31345;51.522;10.702;2023-03-14T02:00:14;96809.72;;;9.36;100.00
45621;BME280;31345;51.522;10.702;2023-03-14T02:02:50;96809.94;;;9.24;100.00
45621;BME280;31345;51.522;10.702;2023-03-14T02:05:27;96807.09;;;9.18;100.00
45621;BME280;31345;51.522;10.702;2023-03-14T02:08:07;96800.69;;;9.12;100.00
45621;BME280;31345;51.522;10.702;2023-03-14T02:10:48;96787.53;;;9.14;100.00
45621;BME280;31345;51.522;10.702;2023-03-14T02:13:26;96787.31;;;9.07;100.00
45621;BME280;31345;51.522;10.702;2023-03-14T02:16:14;96782.16;;;9.15;100.00
45621;BME280;31345;51.522;10.702;2023-03-14T02:18:53;96787.31;;;9.07;100.00
45621;BME280;31345;51.522;10.702;2023-03-14T02:21:46;96775.91;;;9.08;100.00
45621;BME280;31345;51.522;10.702;2023-03-14T02:24:33;96776.72;;;9.08;100.00
45621;BME280;31345;51.522;10.702;2023-03-14T02:27:10;96782.31;;;9.14;100.00
45621;BME280;31345;51.522;10.702;2023-03-14T02:29:49;96766.81;;;9.12;100.00
45621;BME280;31345;51.522;10.702;2023-03-14T02:32:25;96771.16;;;9.03;100.00
45621;BME280;31345;51.522;10.702;2023-03-14T02:34:55;96754.97;;;9.18;100.00
45621;BME280;31345;51.522;10.702;2023-03-14T02:37:30;96749.84;;;9.08;100.00
45621;BME280;31345;51.522;10.702;2023-03-14T02:40:06;96754.91;;;9.09;100.00
45621;BME280;31345;51.522;10.702;2023-03-14T02:42:41;96752.59;;;9.06;100.00
45621;BME280;31345;51.522;10.702;2023-03-14T02:45:39;96763.34;;;9.03;100.00
45621;BME280;31345;51.522;10.702;2023-03-14T02:48:16;96756.09;;;8.97;100.00
45621;BME280;31345;51.522;10.702;2023-03-14T02:50:47;96760.72;;;9.03;100.00
45621;BME280;31345;51.522;10.702;2023-03-14T02:53:23;96753.13;;;8.92;100.00
45621;BME280;31345;51.522;10.702;2023-03-14T02:55:58;96757.81;;;8.88;100.00
45621;BME280;31345;51.522;10.702;2023-03-14T02:58:28;96745.91;;;8.85;100.00
45621;BME280;31345;51.522;10.702;2023-03-14T03:01:09;96749.19;;;8.88;100.00
45621;BME280;31345;51.522;10.702;2023-03-14T03:03:43;96739.63;;;8.96;100.00
45621;BME280;31345;51.522;10.702;2023-03-14T03:06:10;96741.13;;;9.17;100.00
45621;BME280;31345;51.522;10.702;2023-03-14T03:08:43;96735.44;;;9.22;100.00
45621;BME280;31345;51.522;10.702;2023-03-14T03:11:15;96722.56;;;9.20;100.00
45621;BME280;31345;51.522;10.702;2023-03-14T03:13:44;96712.97;;;9.21;100.00
45621;BME280;31345;51.522;10.702;2023-03-14T03:16:19;96722.72;;;9.19;100.00
45621;BME280;31345;51.522;10.702;2023-03-14T03:18:46;96715.81;;;9.09;100.00
45621;BME280;31345;51.522;10.702;2023-03-14T03:21:19;96706.91;;;9.20;100.00
45621;BME280;31345;51.522;10.702;2023-03-14T03:23:54;96719.38;;;9.08;100.00
45621;BME280;31345;51.522;10.702;2023-03-14T03:26:21;96710.16;;;9.14;100.00
45621;BME280;31345;51.522;10.702;2023-03-14T03:28:55;96722.81;;;9.27;100.00
45621;BME280;31345;51.522;10.702;2023-03-14T03:31:23;96707.97;;;9.28;100.00
45621;BME280;31345;51.522;10.702;2023-03-14T03:33:51;96701.94;;;9.27;100.00
45621;BME280;31345;51.522;10.702;2023-03-14T03:36:20;96706.97;;;9.29;100.00
45621;BME280;31345;51.522;10.702;2023-03-14T03:38:48;96705.25;;;9.37;100.00
45621;BME280;31345;51.522;10.702;2023-03-14T03:41:21;96702.75;;;9.28;100.00
45621;BME280;31345;51.522;10.702;2023-03-14T03:43:50;96710.63;;;9.36;100.00
45621;BME280;31345;51.522;10.702;2023-03-14T03:46:24;96691.63;;;9.44;100.00
45621;BME280;31345;51.522;10.702;2023-03-14T03:49:02;96688.72;;;9.29;100.00
45621;BME280;31345;51.522;10.702;2023-03-14T03:51:36;96698.09;;;9.66;100.00
45621;BME280;31345;51.522;10.702;2023-03-14T03:54:14;96697.19;;;9.49;100.00
45621;BME280;31345;51.522;10.702;2023-03-14T03:56:48;96687.19;;;9.44;100.00
45621;BME280;31345;51.522;10.702;2023-03-14T03:59:35;96691.63;;;9.44;100.00
45621;BME280;31345;51.522;10.702;2023-03-14T04:02:10;96679.91;;;9.48;100.00
45621;BME280;31345;51.522;10.702;2023-03-14T04:04:43;96687.19;;;9.44;100.00
45621;BME280;31345;51.522;10.702;2023-03-14T04:07:14;96680.34;;;9.43;100.00
45621;BME280;31345;51.522;10.702;2023-03-14T04:09:43;96682.91;;;9.61;100.00
45621;BME280;31345;51.522;10.702;2023-03-14T04:12:34;96689.59;;;9.64;100.00
45621;BME280;31345;51.522;10.702;2023-03-14T04:15:25;96666.47;;;9.43;100.00
45621;BME280;31345;51.522;10.702;2023-03-14T04:18:08;96673.84;;;9.47;100.00
45621;BME280;31345;51.522;10.702;2023-03-14T04:20:39;96675.34;;;9.50;100.00
45621;BME280;31345;51.522;10.702;2023-03-14T04:23:25;96669.09;;;9.43;100.00
45621;BME280;31345;51.522;10.702;2023-03-14T04:26:07;96681.53;;;9.49;100.00
45621;BME280;31345;51.522;10.702;2023-03-14T04:28:38;96662.75;;;9.72;100.00
45621;BME280;31345;51.522;10.702;2023-03-14T04:31:20;96643.19;;;9.76;100.00
45621;BME280;31345;51.522;10.702;2023-03-14T04:33:53;96638.09;;;9.66;100.00
45621;BME280;31345;51.522;10.702;2023-03-14T04:36:32;96654.16;;;9.53;100.00
45621;BME280;31345;51.522;10.702;2023-03-14T04:39:09;96653.94;;;9.73;100.00
45621;BME280;31345;51.522;10.702;2023-03-14T04:41:44;96652.31;;;9.72;100.00
45621;BME280;31345;51.522;10.702;2023-03-14T04:44:18;96664.13;;;9.93;100.00
45621;BME280;31345;51.522;10.702;2023-03-14T04:46:57;96666.97;;;9.73;100.00
45621;BME280;31345;51.522;10.702;2023-03-14T04:49:33;96658.34;;;9.81;100.00
45621;BME280;31345;51.522;10.702;2023-03-14T04:52:16;96658.59;;;9.96;100.00
45621;BME280;31345;51.522;10.702;2023-03-14T04:54:46;96666.50;;;9.69;100.00
45621;BME280;31345;51.522;10.702;2023-03-14T04:57:17;96659.47;;;9.70;100.00
45621;BME280;31345;51.522;10.702;2023-03-14T04:59:50;96651.84;;;9.85;100.00
45621;BME280;31345;51.522;10.702;2023-03-14T05:02:41;96649.44;;;9.57;100.00
45621;BME280;31345;51.522;10.702;2023-03-14T05:05:32;96647.91;;;9.81;100.00
45621;BME280;31345;51.522;10.702;2023-03-14T05:08:17;96638.81;;;9.85;100.00
45621;BME280;31345;51.522;10.702;2023-03-14T05:11:13;96642.47;;;9.66;100.00
45621;BME280;31345;51.522;10.702;2023-03-14T05:14:14;96648.94;;;9.53;100.00
45621;BME280;31345;51.522;10.702;2023-03-14T05:17:08;96637.00;;;9.42;100.00
45621;BME280;31345;51.522;10.702;2023-03-14T05:19:49;96631.38;;;9.55;100.00
45621;BME280;31345;51.522;10.702;2023-03-14T05:22:50;96632.84;;;9.58;100.00
45621;BME280;31345;51.522;10.702;2023-03-14T05:25:39;96643.38;;;9.48;100.00
45621;BME280;31345;51.522;10.702;2023-03-14T05:28:46;96632.50;;;9.61;100.00
45621;BME280;31345;51.522;10.702;2023-03-14T05:32:00;96625.16;;;9.56;100.00
45621;BME280;31345;51.522;10.702;2023-03-14T05:35:01;96637.66;;;9.44;100.00
45621;BME280;31345;51.522;10.702;2023-03-14T05:37:40;96641.38;;;9.42;100.00
45621;BME280;31345;51.522;10.702;2023-03-14T05:40:37;96641.13;;;9.53;100.00
45621;BME280;31345;51.522;10.702;2023-03-14T05:43:59;96641.34;;;9.33;100.00
45621;BME280;31345;51.522;10.702;2023-03-14T05:46:34;96641.69;;;9.38;100.00
45621;BME280;31345;51.522;10.702;2023-03-14T05:49:28;96642.84;;;9.44;100.00
45621;BME280;31345;51.522;10.702;2023-03-14T05:52:29;96640.00;;;9.56;100.00
45621;BME280;31345;51.522;10.702;2023-03-14T05:55:38;96628.28;;;9.60;100.00
45621;BME280;31345;51.522;10.702;2023-03-14T05:58:15;96624.34;;;9.56;100.00
45621;BME280;31345;51.522;10.702;2023-03-14T06:01:09;96627.09;;;9.54;100.00
45621;BME280;31345;51.522;10.702;2023-03-14T06:03:52;96621.66;;;9.39;100.00
45621;BME280;31345;51.522;10.702;2023-03-14T06:06:21;96628.44;;;9.32;100.00
45621;BME280;31345;51.522;10.702;2023-03-14T06:08:49;96624.03;;;9.24;100.00
45621;BME280;31345;51.522;10.702;2023-03-14T06:11:30;96622.88;;;9.27;100.00
45621;BME280;31345;51.522;10.702;2023-03-14T06:13:59;96620.81;;;9.38;100.00
45621;BME280;31345;51.522;10.702;2023-03-14T06:16:39;96636.47;;;9.38;100.00
45621;BME280;31345;51.522;10.702;2023-03-14T06:19:10;96646.22;;;9.28;100.00
45621;BME280;31345;51.522;10.702;2023-03-14T06:21:45;96645.69;;;9.24;100.00
45621;BME280;31345;51.522;10.702;2023-03-14T06:24:49;96655.47;;;9.22;100.00
45621;BME280;31345;51.522;10.702;2023-03-14T06:27:29;96649.31;;;9.32;100.00
45621;BME280;31345;51.522;10.702;2023-03-14T06:29:58;96651.50;;;9.45;100.00
45621;BME280;31345;51.522;10.702;2023-03-14T06:32:34;96649.78;;;9.54;100.00
45621;BME280;31345;51.522;10.702;2023-03-14T06:35:18;96648.97;;;9.61;100.00
45621;BME280;31345;51.522;10.702;2023-03-14T06:37:56;96654.84;;;9.55;100.00
45621;BME280;31345;51.522;10.702;2023-03-14T06:40:38;96646.44;;;9.78;100.00
45621;BME280;31345;51.522;10.702;2023-03-14T06:43:14;96644.81;;;9.77;100.00
45621;BME280;31345;51.522;10.702;2023-03-14T06:45:58;96650.63;;;9.62;100.00
45621;BME280;31345;51.522;10.702;2023-03-14T06:49:04;96648.94;;;9.53;100.00
45621;BME280;31345;51.522;10.702;2023-03-14T06:51:41;96647.06;;;9.63;100.00
45621;BME280;31345;51.522;10.702;2023-03-14T06:54:12;96633.66;;;9.67;100.00
45621;BME280;31345;51.522;10.702;2023-03-14T06:56:50;96644.63;;;9.70;100.00
45621;BME280;31345;51.522;10.702;2023-03-14T06:59:24;96642.47;;;9.66;100.00
45621;BME280;31345;51.522;10.702;2023-03-14T07:01:57;96643.88;;;9.86;100.00
45621;BME280;31345;51.522;10.702;2023-03-14T07:04:25;96649.06;;;9.78;100.00
45621;BME280;31345;51.522;10.702;2023-03-14T07:06:58;96650.00;;;9.69;100.00
45621;BME280;31345;51.522;10.702;2023-03-14T07:09:31;96653.44;;;9.69;100.00
45621;BME280;31345;51.522;10.702;2023-03-14T07:12:00;96654.78;;;9.82;100.00
45621;BME280;31345;51.522;10.702;2023-03-14T07:14:31;96654.66;;;9.92;100.00
45621;BME280;31345;51.522;10.702;2023-03-14T07:16:59;96658.19;;;9.82;100.00
45621;BME280;31345;51.522;10.702;2023-03-14T07:19:32;96664.88;;;9.76;100.00
45621;BME280;31345;51.522;10.702;2023-03-14T07:22:05;96658.16;;;9.74;100.00
45621;BME280;31345;51.522;10.702;2023-03-14T07:24:37;96658.19;;;9.82;100.00
45621;BME280;31345;51.522;10.702;2023-03-14T07:27:05;96668.34;;;9.85;100.00
45621;BME280;31345;51.522;10.702;2023-03-14T07:29:34;96667.00;;;9.81;100.00
45621;BME280;31345;51.522;10.702;2023-03-14T07:32:04;96678.78;;;9.85;100.00
45621;BME280;31345;51.522;10.702;2023-03-14T07:34:36;96674.25;;;9.96;100.00
45621;BME280;31345;51.522;10.702;2023-03-14T07:37:09;96672.50;;;10.05;100.00
45621;BME280;31345;51.522;10.702;2023-03-14T07:39:42;96672.00;;;10.01;100.00
45621;BME280;31345;51.522;10.702;2023-03-14T07:42:19;96668.69;;;9.99;100.00
45621;BME280;31345;51.522;10.702;2023-03-14T07:45:11;96661.69;;;9.99;100.00
45621;BME280;31345;51.522;10.702;2023-03-14T07:47:39;96656.78;;;9.96;100.00
45621;BME280;31345;51.522;10.702;2023-03-14T07:50:12;96659.47;;;10.13;100.00
45621;BME280;31345;51.522;10.702;2023-03-14T07:52:44;96655.22;;;10.04;100.00
45621;BME280;31345;51.522;10.702;2023-03-14T07:55:17;96640.63;;;9.93;100.00
45621;BME280;31345;51.522;10.702;2023-03-14T07:57:50;96639.66;;;9.94;100.00
45621;BME280;31345;51.522;10.702;2023-03-14T08:00:20;96638.41;;;10.06;100.00
45621;BME280;31345;51.522;10.702;2023-03-14T08:02:47;96634.19;;;10.05;100.00
45621;BME280;31345;51.522;10.702;2023-03-14T08:05:15;96625.63;;;9.95;100.00
45621;BME280;31345;51.522;10.702;2023-03-14T08:07:43;96622.13;;;10.04;100.00
45621;BME280;31345;51.522;10.702;2023-03-14T08:10:16;96608.56;;;10.09;100.00
45621;BME280;31345;51.522;10.702;2023-03-14T08:12:48;96608.91;;;10.14;100.00
45621;BME280;31345;51.522;10.702;2023-03-14T08:15:23;96606.81;;;10.26;100.00
45621;BME280;31345;51.522;10.702;2023-03-14T08:17:57;96599.66;;;10.36;100.00
45621;BME280;31345;51.522;10.702;2023-03-14T08:20:26;96592.66;;;10.62;100.00
45621;BME280;31345;51.522;10.702;2023-03-14T08:22:55;96589.03;;;10.63;100.00
45621;BME280;31345;51.522;10.702;2023-03-14T08:25:29;96592.97;;;10.75;100.00
45621;BME280;31345;51.522;10.702;2023-03-14T08:28:04;96592.63;;;10.87;100.00
45621;BME280;31345;51.522;10.702;2023-03-14T08:30:38;96589.03;;;10.71;100.00
45621;BME280;31345;51.522;10.702;2023-03-14T08:33:05;96588.88;;;10.81;100.00
45621;BME280;31345;51.522;10.702;2023-03-14T08:35:38;96583.31;;;10.84;100.00
45621;BME280;31345;51.522;10.702;2023-03-14T08:38:11;96593.78;;;10.84;100.00
45621;BME280;31345;51.522;10.702;2023-03-14T08:40:44;96586.56;;;10.95;100.00
45621;BME280;31345;51.522;10.702;2023-03-14T08:43:17;96586.59;;;10.78;100.00
45621;BME280;31345;51.522;10.702;2023-03-14T08:45:51;96589.53;;;10.75;100.00
45621;BME280;31345;51.522;10.702;2023-03-14T08:48:24;96581.03;;;10.81;100.00
45621;BME280;31345;51.522;10.702;2023-03-14T08:50:56;96585.44;;;10.81;100.00
45621;BME280;31345;51.522;10.702;2023-03-14T08:53:29;96578.75;;;10.78;100.00
45621;BME280;31345;51.522;10.702;2023-03-14T08:56:02;96585.09;;;10.84;100.00
45621;BME280;31345;51.522;10.702;2023-03-14T08:58:32;96586.56;;;10.86;100.00
45621;BME280;31345;51.522;10.702;2023-03-14T09:01:08;96589.69;;;10.90;99.53
45621;BME280;31345;51.522;10.702;2023-03-14T09:03:36;96599.50;;;10.79;100.00
45621;BME280;31345;51.522;10.702;2023-03-14T09:06:05;96603.41;;;10.92;100.00
45621;BME280;31345;51.522;10.702;2023-03-14T09:08:34;96607.81;;;10.91;100.00
45621;BME280;31345;51.522;10.702;2023-03-14T09:11:08;96608.78;;;10.90;100.00
45621;BME280;31345;51.522;10.702;2023-03-14T09:13:36;96613.69;;;10.94;100.00
45621;BME280;31345;51.522;10.702;2023-03-14T09:16:10;96619.56;;;11.04;99.54
45621;BME280;31345;51.522;10.702;2023-03-14T09:18:43;96622.00;;;10.89;100.00
45621;BME280;31345;51.522;10.702;2023-03-14T09:21:16;96620.53;;;10.95;100.00
45621;BME280;31345;51.522;10.702;2023-03-14T09:23:44;96620.91;;;10.91;100.00
45621;BME280;31345;51.522;10.702;2023-03-14T09:26:12;96622.69;;;10.83;100.00
45621;BME280;31345;51.522;10.702;2023-03-14T09:28:39;96624.00;;;10.70;100.00
45621;BME280;31345;51.522;10.702;2023-03-14T09:31:14;96621.53;;;10.85;100.00
45621;BME280;31345;51.522;10.702;2023-03-14T09:33:47;96621.38;;;10.78;100.00
45621;BME280;31345;51.522;10.702;2023-03-14T09:36:14;96611.72;;;10.79;100.00
45621;BME280;31345;51.522;10.702;2023-03-14T09:38:42;96620.41;;;10.79;100.00
45621;BME280;31345;51.522;10.702;2023-03-14T09:41:18;96622.34;;;11.02;100.00
45621;BME280;31345;51.522;10.702;2023-03-14T09:44:00;96617.72;;;11.21;98.36
45621;BME280;31345;51.522;10.702;2023-03-14T09:46:32;96625.59;;;11.29;100.00
45621;BME280;31345;51.522;10.702;2023-03-14T09:49:10;96627.38;;;11.21;99.44
45621;BME280;31345;51.522;10.702;2023-03-14T09:51:45;96620.56;;;11.11;99.96
45621;BME280;31345;51.522;10.702;2023-03-14T09:54:23;96632.97;;;11.01;100.00
45621;BME280;31345;51.522;10.702;2023-03-14T09:56:59;96631.31;;;11.16;99.61
45621;BME280;31345;51.522;10.702;2023-03-14T09:59:27;96625.13;;;11.09;100.00
45621;BME280;31345;51.522;10.702;2023-03-14T10:02:14;96629.19;;;11.20;100.00
45621;BME280;31345;51.522;10.702;2023-03-14T10:04:51;96632.28;;;11.32;100.00
45621;BME280;31345;51.522;10.702;2023-03-14T10:07:25;96634.34;;;11.53;100.00
45621;BME280;31345;51.522;10.702;2023-03-14T10:09:55;96629.75;;;12.04;99.24
45621;BME280;31345;51.522;10.702;2023-03-14T10:12:31;96620.81;;;12.21;97.79
45621;BME280;31345;51.522;10.702;2023-03-14T10:15:07;96621.69;;;12.14;98.01
45621;BME280;31345;51.522;10.702;2023-03-14T10:17:42;96616.91;;;11.86;98.62
45621;BME280;31345;51.522;10.702;2023-03-14T10:20:27;96625.53;;;11.86;97.76
45621;BME280;31345;51.522;10.702;2023-03-14T10:23:05;96624.59;;;11.79;97.53
45621;BME280;31345;51.522;10.702;2023-03-14T10:25:35;96630.41;;;11.57;98.03
45621;BME280;31345;51.522;10.702;2023-03-14T10:28:04;96623.81;;;11.70;97.88
45621;BME280;31345;51.522;10.702;2023-03-14T10:30:40;96633.94;;;11.73;98.24
45621;BME280;31345;51.522;10.702;2023-03-14T10:33:22;96635.69;;;11.98;97.20
45621;BME280;31345;51.522;10.702;2023-03-14T10:35:53;96630.22;;;12.07;94.70
45621;BME280;31345;51.522;10.702;2023-03-14T10:38:28;96629.78;;;11.87;96.58
45621;BME280;31345;51.522;10.702;2023-03-14T10:41:01;96630.66;;;11.79;97.29
45621;BME280;31345;51.522;10.702;2023-03-14T10:43:36;96645.88;;;11.76;96.90
45621;BME280;31345;51.522;10.702;2023-03-14T10:46:09;96632.59;;;11.86;96.44
45621;BME280;31345;51.522;10.702;2023-03-14T10:48:58;96641.91;;;11.88;96.11
45621;BME280;31345;51.522;10.702;2023-03-14T10:51:27;96632.06;;;11.90;96.33
45621;BME280;31345;51.522;10.702;2023-03-14T10:53:57;96631.28;;;12.21;96.35
45621;BME280;31345;51.522;10.702;2023-03-14T10:56:34;96630.63;;;12.28;96.04
45621;BME280;31345;51.522;10.702;2023-03-14T10:59:11;96638.00;;;12.24;94.83
45621;BME280;31345;51.522;10.702;2023-03-14T11:01:43;96637.69;;;12.74;95.57
45621;BME280;31345;51.522;10.702;2023-03-14T11:04:30;96633.94;;;12.68;94.33
45621;BME280;31345;51.522;10.702;2023-03-14T11:07:10;96635.03;;;12.51;94.26
45621;BME280;31345;51.522;10.702;2023-03-14T11:09:51;96635.50;;;12.31;94.83
45621;BME280;31345;51.522;10.702;2023-03-14T11:12:38;96643.44;;;12.14;96.37
45621;BME280;31345;51.522;10.702;2023-03-14T11:15:18;96649.28;;;12.25;96.90
45621;BME280;31345;51.522;10.702;2023-03-14T11:18:02;96638.59;;;12.03;96.86
45621;BME280;31345;51.522;10.702;2023-03-14T11:20:43;96639.25;;;12.05;97.24
45621;BME280;31345;51.522;10.702;2023-03-14T11:23:21;96635.28;;;12.09;97.44
45621;BME280;31345;51.522;10.702;2023-03-14T11:25:55;96632.88;;;11.99;98.28
45621;BME280;31345;51.522;10.702;2023-03-14T11:28:29;96634.06;;;11.88;97.67
45621;BME280;31345;51.522;10.702;2023-03-14T11:31:10;96633.13;;;11.73;99.88
45621;BME280;31345;51.522;10.702;2023-03-14T11:33:47;96632.19;;;11.65;100.00
45621;BME280;31345;51.522;10.702;2023-03-14T11:36:27;96639.34;;;11.80;100.00
45621;BME280;31345;51.522;10.702;2023-03-14T11:39:02;96638.63;;;11.94;99.50
45621;BME280;31345;51.522;10.702;2023-03-14T11:41:43;96633.31;;;12.11;98.86
45621;BME280;31345;51.522;10.702;2023-03-14T11:44:18;96621.72;;;12.37;99.40
45621;BME280;31345;51.522;10.702;2023-03-14T11:46:54;96616.63;;;12.82;97.01
45621;BME280;31345;51.522;10.702;2023-03-14T11:49:33;96612.25;;;13.43;93.91
45621;BME280;31345;51.522;10.702;2023-03-14T11:52:14;96604.06;;;13.77;93.11
45621;BME280;31345;51.522;10.702;2023-03-14T11:54:47;96609.81;;;13.87;92.94
45621;BME280;31345;51.522;10.702;2023-03-14T11:57:22;96609.03;;;13.71;90.46
45621;BME280;31345;51.522;10.702;2023-03-14T12:00:00;96602.41;;;13.91;90.03
45621;BME280;31345;51.522;10.702;2023-03-14T12:02:49;96609.19;;;13.40;92.57
45621;BME280;31345;51.522;10.702;2023-03-14T12:05:39;96619.69;;;13.09;94.06
45621;BME280;31345;51.522;10.702;2023-03-14T12:08:33;96612.75;;;12.93;94.23
45621;BME280;31345;51.522;10.702;2023-03-14T12:11:15;96618.59;;;13.04;94.64
45621;BME280;31345;51.522;10.702;2023-03-14T12:13:51;96611.31;;;12.91;95.08
45621;BME280;31345;51.522;10.702;2023-03-14T12:16:32;96611.84;;;12.86;95.45
45621;BME280;31345;51.522;10.702;2023-03-14T12:19:35;96612.41;;;12.96;95.17
45621;BME280;31345;51.522;10.702;2023-03-14T12:22:28;96600.59;;;13.31;93.77
45621;BME280;31345;51.522;10.702;2023-03-14T12:25:02;96601.25;;;13.33;93.65
45621;BME280;31345;51.522;10.702;2023-03-14T12:30:36;96596.53;;;12.75;94.20
45621;BME280;31345;51.522;10.702;2023-03-14T12:33:31;96585.59;;;12.71;94.17
45621;BME280;31345;51.522;10.702;2023-03-14T12:36:12;96588.69;;;12.51;95.17
45621;BME280;31345;51.522;10.702;2023-03-14T12:38:59;96580.72;;;12.44;94.36
45621;BME280;31345;51.522;10.702;2023-03-14T12:41:42;96578.09;;;12.44;94.35
45621;BME280;31345;51.522;10.702;2023-03-14T12:44:43;96578.50;;;12.33;95.68
45621;BME280;31345;51.522;10.702;2023-03-14T12:47:49;96571.09;;;12.37;96.36
45621;BME280;31345;51.522;10.702;2023-03-14T12:50:30;96559.41;;;12.48;94.05
45621;BME280;31345;51.522;10.702;2023-03-14T12:53:42;96569.13;;;12.39;94.30
45621;BME280;31345;51.522;10.702;2023-03-14T12:56:28;96557.59;;;12.48;91.05
45621;BME280;31345;51.522;10.702;2023-03-14T12:59:30;96567.31;;;12.39;92.84
45621;BME280;31345;51.522;10.702;2023-03-14T13:02:37;96562.50;;;12.28;93.07
45621;BME280;31345;51.522;10.702;2023-03-14T13:05:10;96589.94;;;12.08;96.04
45621;BME280;31345;51.522;10.702;2023-03-14T13:08:04;96593.13;;;11.87;98.29
45621;BME280;31345;51.522;10.702;2023-03-14T13:10:45;96602.41;;;11.66;99.71
45621;BME280;31345;51.522;10.702;2023-03-14T13:13:19;96606.38;;;11.54;100.00
45621;BME280;31345;51.522;10.702;2023-03-14T13:15:54;96629.81;;;11.30;100.00
45621;BME280;31345;51.522;10.702;2023-03-14T13:18:27;96621.16;;;11.22;100.00
45621;BME280;31345;51.522;10.702;2023-03-14T13:21:05;96646.69;;;11.03;100.00
45621;BME280;31345;51.522;10.702;2023-03-14T13:23:39;96723.19;;;10.28;100.00
45621;BME280;31345;51.522;10.702;2023-03-14T13:26:14;96714.59;;;9.48;100.00
45621;BME280;31345;51.522;10.702;2023-03-14T13:28:42;96724.34;;;9.38;100.00
45621;BME280;31345;51.522;10.702;2023-03-14T13:31:21;96728.38;;;9.32;100.00
45621;BME280;31345;51.522;10.702;2023-03-14T13:33:58;96750.59;;;9.18;100.00
45621;BME280;31345;51.522;10.702;2023-03-14T13:36:26;96752.72;;;9.05;100.00
45621;BME280;31345;51.522;10.702;2023-03-14T13:38:59;96761.31;;;8.97;100.00
45621;BME280;31345;51.522;10.702;2023-03-14T13:41:32;96776.88;;;8.89;100.00